Etusivu
METAR-TAF:

METAR-TAF

Lentoasemat :

Isla Margarita, Venezuela

Leveyspiiri: 10-55N, Pituuspiiri: 063-59W, korkeus merenpinnasta: 23 m

METAR: puuttuu

Aika: 12:31 (16:31 UTC)

Sääennuste

Tämä raportti tehtiin 6 tuntia ja 31 minuuttia sitten, kello 10.00 UTC
Ennuste voimassa 13. päivästä klo 12 UTC - 14. päivään klo 12 UTC
Tuuli 5 kn lännestä/luoteesta
Näkyvyys 10 km tai enemmän
Hajanaisia pilviä 2000 ft:n korkeudessa
Ajoittain
13. päivästä klo 14 UTC - 13. päivään klo 16 UTC
Tuuli 5 kn kaakosta
Näkyvyys 10 km tai enemmän
Hajanaisia pilviä 1300 ft:n korkeudessa
Hajonneita pilviä 4000 ft:n korkeudessa

TAF: SVMG 131000Z 1312/1412 29005KT 9999 SCT020 TX31/1318Z TN25/1309Z TEMPO 1314/1316 14005KT 9999 SCT013 BKN040

Säähavainnot ja -ennusteet yli 4000 lentoasemalta (METAR- ja TAF-raportit).

Käytössä olevat sääasemat on merkitty karttaan keltaisilla ja punaisilla pisteillä.

Aseta hiiri pisteen päälle nähdäksesi sääaseman nimen.

Klikkaa sitten nähdäksesi säähavainnot ja -ennusteet.

Kartan vaihtaminen: klikkaa mustalla rastilla varustettuja vihreitä pisteitä, niin voit zoomata sisään; viivalla varustettua vihreää pistettä, niin voit zoomata ulos tai vihreitä nuolia, niin pääset viereisille kartoille.


METAR-TAF: